createdAt,value
2022-12-03T00:01:28.494Z,100910.53
2022-12-03T00:03:56.402Z,100912.22
2022-12-03T00:06:25.626Z,100919.59
2022-12-03T00:08:54.000Z,100902.22
2022-12-03T00:11:21.762Z,100909.47
2022-12-03T00:13:49.415Z,100905.25
2022-12-03T00:16:17.134Z,100905.03
2022-12-03T00:18:46.273Z,100895.78
2022-12-03T00:21:26.263Z,100907.81
2022-12-03T00:23:54.021Z,100899.78
2022-12-03T00:26:21.730Z,100900.63
2022-12-03T00:28:49.424Z,100905.03
2022-12-03T00:31:17.189Z,100898.53
2022-12-03T00:33:46.242Z,100903.78
2022-12-03T00:36:13.855Z,100899.88
2022-12-03T00:38:41.548Z,100899.38
2022-12-03T00:41:09.201Z,100897.25
2022-12-03T00:43:36.869Z,100899.72
2022-12-03T00:46:04.579Z,100899.78
2022-12-03T00:48:32.256Z,100894.22
2022-12-03T00:51:01.260Z,100890.09
2022-12-03T00:53:29.265Z,100893.13
2022-12-03T00:55:56.924Z,100895.75
2022-12-03T00:58:24.586Z,100883.03
2022-12-03T01:00:52.334Z,100890.75
2022-12-03T01:03:19.972Z,100887.56
2022-12-03T01:05:47.671Z,100896.63
2022-12-03T01:08:16.906Z,100891.47
2022-12-03T01:10:44.666Z,100893.25
2022-12-03T01:13:12.365Z,100895.16
2022-12-03T01:15:40.098Z,100894.53
2022-12-03T01:18:07.900Z,100893.47
2022-12-03T01:20:36.302Z,100891.19
2022-12-03T01:23:04.079Z,100903.78
2022-12-03T01:25:33.095Z,100901.06
2022-12-03T01:28:00.752Z,100900.84
2022-12-03T01:30:28.461Z,100903.81
2022-12-03T01:32:55.139Z,100899.50
2022-12-03T01:35:22.813Z,100898.53
2022-12-03T01:37:50.531Z,100903.59
2022-12-03T01:40:21.264Z,100900.00
2022-12-03T01:42:50.323Z,100899.06
2022-12-03T01:45:24.700Z,100896.09
2022-12-03T01:47:52.522Z,100902.09
2022-12-03T01:50:24.750Z,100901.25
2022-12-03T01:52:54.369Z,100898.75
2022-12-03T01:55:25.364Z,100905.16
2022-12-03T01:57:56.932Z,100913.25
2022-12-03T02:00:27.773Z,100914.72
2022-12-03T02:02:57.961Z,100914.94
2022-12-03T02:05:29.470Z,100908.81
2022-12-03T02:07:58.202Z,100915.56
2022-12-03T02:10:28.997Z,100915.88
2022-12-03T02:13:00.890Z,100912.75
2022-12-03T02:15:29.072Z,100913.03
2022-12-03T02:17:57.752Z,100908.84
2022-12-03T02:20:25.844Z,100916.94
2022-12-03T02:23:03.867Z,100914.13
2022-12-03T02:25:35.514Z,100918.53
2022-12-03T02:28:05.717Z,100917.16
2022-12-03T02:30:33.755Z,100908.22
2022-12-03T02:33:02.451Z,100913.69
2022-12-03T02:35:33.989Z,100907.28
2022-12-03T02:38:08.006Z,100909.91
2022-12-03T02:40:37.347Z,100905.16
2022-12-03T02:43:05.132Z,100902.00
2022-12-03T02:45:36.962Z,100910.00
2022-12-03T02:48:09.823Z,100909.25
2022-12-03T02:50:41.285Z,100907.66
2022-12-03T02:53:13.833Z,100905.88
2022-12-03T02:55:43.478Z,100904.97
2022-12-03T02:58:12.613Z,100909.25
2022-12-03T03:00:40.783Z,100913.47
2022-12-03T03:03:09.991Z,100913.88
2022-12-03T03:05:40.099Z,100913.78
2022-12-03T03:08:10.085Z,100918.41
2022-12-03T03:10:39.759Z,100902.69
2022-12-03T03:13:11.778Z,100911.59
2022-12-03T03:15:40.491Z,100913.47
2022-12-03T03:18:09.288Z,100912.22
2022-12-03T03:20:37.815Z,100908.41
2022-12-03T03:23:15.600Z,100906.53
2022-12-03T03:25:47.045Z,100911.59
2022-12-03T03:28:17.658Z,100911.03
2022-12-03T03:30:45.881Z,100905.03
2022-12-03T03:33:14.448Z,100908.94
2022-12-03T03:35:43.139Z,100914.91
2022-12-03T03:38:11.586Z,100902.69
2022-12-03T03:40:40.231Z,100913.78
2022-12-03T03:43:08.358Z,100912.16
2022-12-03T03:45:37.468Z,100908.34
2022-12-03T03:48:05.387Z,100905.00
2022-12-03T03:50:33.729Z,100898.81
2022-12-03T03:53:03.592Z,100902.69
2022-12-03T03:55:31.731Z,100898.28
2022-12-03T03:57:59.632Z,100898.19
2022-12-03T04:00:27.518Z,100897.97
2022-12-03T04:02:56.618Z,100898.06
2022-12-03T04:05:25.660Z,100901.03
2022-12-03T04:07:53.355Z,100905.34
2022-12-03T04:10:38.959Z,100892.41
2022-12-03T04:13:07.343Z,100893.50
2022-12-03T04:15:35.011Z,100903.16
2022-12-03T04:18:21.710Z,100894.94
2022-12-03T04:20:49.474Z,100896.28
2022-12-03T04:23:16.415Z,100894.09
2022-12-03T04:26:01.728Z,100884.28
2022-12-03T04:28:47.087Z,100882.81
2022-12-03T04:31:32.540Z,100894.09
2022-12-03T04:34:18.369Z,100891.75
2022-12-03T04:36:46.123Z,100889.03
2022-12-03T04:39:13.851Z,100882.53
2022-12-03T04:41:41.656Z,100885.78
2022-12-03T04:44:26.708Z,100890.09
2022-12-03T04:46:54.425Z,100885.47
2022-12-03T04:49:23.554Z,100885.38
2022-12-03T04:51:51.284Z,100885.66
2022-12-03T04:54:19.013Z,100886.09
2022-12-03T04:56:46.681Z,100889.22
2022-12-03T04:59:16.448Z,100886.69
2022-12-03T05:01:44.765Z,100887.16
2022-12-03T05:04:12.638Z,100883.97
2022-12-03T05:06:42.237Z,100879.63
2022-12-03T05:09:10.231Z,100885.53
2022-12-03T05:11:37.944Z,100883.31
2022-12-03T05:14:06.472Z,100881.44
2022-12-03T05:16:34.349Z,100880.03
2022-12-03T05:19:02.466Z,100876.47
2022-12-03T05:21:29.266Z,100881.53
2022-12-03T05:23:58.937Z,100887.06
2022-12-03T05:26:26.645Z,100874.72
2022-12-03T05:28:54.352Z,100880.41
2022-12-03T05:31:22.155Z,100879.53
2022-12-03T05:33:49.934Z,100877.19
2022-12-03T05:36:17.688Z,100876.25
2022-12-03T05:38:45.381Z,100876.75
2022-12-03T05:41:32.055Z,100871.28
2022-12-03T05:43:59.800Z,100868.78
2022-12-03T05:46:27.633Z,100865.84
2022-12-03T05:48:55.466Z,100863.91
2022-12-03T05:51:23.156Z,100865.06
2022-12-03T05:53:50.928Z,100862.81
2022-12-03T05:56:20.042Z,100873.03
2022-12-03T05:58:47.809Z,100867.47
2022-12-03T06:01:15.494Z,100865.69
2022-12-03T06:03:43.296Z,100869.97
2022-12-03T06:06:11.134Z,100874.63
2022-12-03T06:08:38.831Z,100871.56
2022-12-03T06:11:06.891Z,100869.97
2022-12-03T06:13:36.014Z,100857.25
2022-12-03T06:16:03.894Z,100872.22
2022-12-03T06:18:31.896Z,100862.72
2022-12-03T06:20:59.659Z,100861.88
2022-12-03T06:23:27.383Z,100858.75
2022-12-03T06:25:55.085Z,100855.75
2022-12-03T06:28:22.765Z,100862.25
2022-12-03T06:30:51.901Z,100859.44
2022-12-03T06:33:19.717Z,100856.59
2022-12-03T06:35:47.447Z,100857.44
2022-12-03T06:38:15.157Z,100851.13
2022-12-03T06:40:42.876Z,100844.91
2022-12-03T06:43:10.746Z,100853.38
2022-12-03T06:45:42.054Z,100838.94
2022-12-03T06:48:13.815Z,100843.25
2022-12-03T06:50:41.565Z,100842.72
2022-12-03T06:53:09.239Z,100846.41
2022-12-03T06:55:36.955Z,100843.91
2022-12-03T06:58:04.783Z,100841.50
2022-12-03T07:00:32.388Z,100843.06
2022-12-03T07:03:00.201Z,100849.91
2022-12-03T07:05:29.347Z,100857.28
2022-12-03T07:07:57.180Z,100855.19
2022-12-03T07:10:24.967Z,100856.88
2022-12-03T07:12:52.605Z,100859.50
2022-12-03T07:15:20.478Z,100861.59
2022-12-03T07:17:48.231Z,100875.50
2022-12-03T07:20:16.304Z,100875.69
2022-12-03T07:22:45.351Z,100886.00
2022-12-03T07:25:19.542Z,100881.78
2022-12-03T07:27:50.455Z,100885.91
2022-12-03T07:30:18.516Z,100891.59
2022-12-03T07:32:46.177Z,100887.41
2022-12-03T07:35:14.451Z,100894.50
2022-12-03T07:37:42.335Z,100882.75
2022-12-03T07:40:12.892Z,100883.16
2022-12-03T07:42:40.644Z,100881.34
2022-12-03T07:45:09.869Z,100881.91
2022-12-03T07:47:37.556Z,100883.16
2022-12-03T07:50:05.775Z,100875.16
2022-12-03T07:52:33.537Z,100885.03
2022-12-03T07:55:01.198Z,100880.81
2022-12-03T07:57:30.208Z,100887.91
2022-12-03T07:59:57.913Z,100880.41
2022-12-03T08:02:25.674Z,100876.63
2022-12-03T08:04:53.625Z,100888.00
2022-12-03T08:07:21.503Z,100881.25
2022-12-03T08:09:49.328Z,100887.59
2022-12-03T08:12:20.944Z,100892.41
2022-12-03T08:14:50.336Z,100887.22
2022-12-03T08:17:19.854Z,100890.69
2022-12-03T08:19:48.295Z,100886.13
2022-12-03T08:22:17.211Z,100892.34
2022-12-03T08:24:45.481Z,100893.19
2022-12-03T08:27:19.452Z,100893.09
2022-12-03T08:29:47.567Z,100887.94
2022-12-03T08:32:16.693Z,100885.00
2022-12-03T08:34:45.826Z,100878.13
2022-12-03T08:37:17.685Z,100875.03
2022-12-03T08:39:46.902Z,100874.56
2022-12-03T08:42:37.748Z,100877.91
2022-12-03T08:45:40.625Z,100869.97
2022-12-03T08:48:34.126Z,100875.59
2022-12-03T08:51:06.005Z,100885.94
2022-12-03T08:53:36.301Z,100864.59
2022-12-03T08:56:07.046Z,100879.47
2022-12-03T08:58:39.260Z,100873.00
2022-12-03T09:01:30.352Z,100878.28
2022-12-03T09:04:15.620Z,100878.28
2022-12-03T09:06:43.458Z,100880.66
2022-12-03T09:09:11.172Z,100878.88
2022-12-03T09:11:38.929Z,100866.53
2022-12-03T09:14:07.180Z,100872.78
2022-12-03T09:16:34.858Z,100864.88
2022-12-03T09:19:04.112Z,100856.72
2022-12-03T09:21:31.868Z,100846.16
2022-12-03T09:23:59.838Z,100851.91
2022-12-03T09:26:28.302Z,100854.03
2022-12-03T09:28:56.189Z,100848.56
2022-12-03T09:31:23.918Z,100852.47
2022-12-03T09:33:51.641Z,100868.38
2022-12-03T09:36:20.746Z,100862.06
2022-12-03T09:38:48.505Z,100876.03
2022-12-03T09:41:16.200Z,100873.84
2022-12-03T09:44:03.326Z,100868.13
2022-12-03T09:46:32.259Z,100858.41
2022-12-03T09:49:00.012Z,100846.34
2022-12-03T09:51:34.754Z,100849.03
2022-12-03T09:54:03.911Z,100855.50
2022-12-03T09:56:31.950Z,100854.34
2022-12-03T09:59:00.120Z,100866.09
2022-12-03T10:01:30.253Z,100849.69
2022-12-03T10:03:59.381Z,100859.16
2022-12-03T10:06:27.116Z,100849.47
2022-12-03T10:08:56.686Z,100857.75
2022-12-03T10:11:26.398Z,100851.88
2022-12-03T10:13:56.440Z,100842.28
2022-12-03T10:16:24.971Z,100835.19
2022-12-03T10:18:54.416Z,100839.25
2022-12-03T10:21:26.795Z,100835.22
2022-12-03T10:24:20.015Z,100834.50
2022-12-03T10:26:49.676Z,100828.97
2022-12-03T10:29:39.436Z,100822.22
2022-12-03T10:32:10.296Z,100822.13
2022-12-03T10:34:39.385Z,100812.84
2022-12-03T10:37:12.959Z,100802.38
2022-12-03T10:39:58.849Z,100806.88
2022-12-03T10:42:27.613Z,100799.00
2022-12-03T10:45:15.389Z,100801.13
2022-12-03T10:47:43.691Z,100796.16
2022-12-03T10:50:18.274Z,100786.72
2022-12-03T10:52:46.731Z,100793.09
2022-12-03T10:55:15.901Z,100793.94
2022-12-03T10:57:45.826Z,100788.75
2022-12-03T11:00:19.493Z,100786.59
2022-12-03T11:02:53.370Z,100783.88
2022-12-03T11:05:27.773Z,100780.94
2022-12-03T11:07:55.738Z,100780.41
2022-12-03T11:10:23.634Z,100771.63
2022-12-03T11:13:29.492Z,100770.91
2022-12-03T11:15:59.600Z,100763.44
2022-12-03T11:19:02.255Z,100759.84
2022-12-03T11:21:32.927Z,100755.03
2022-12-03T11:24:22.783Z,100754.13
2022-12-03T11:27:18.815Z,100750.53
2022-12-03T11:30:01.939Z,100749.09
2022-12-03T11:33:07.258Z,100756.63
2022-12-03T11:36:15.599Z,100748.75
2022-12-03T11:38:53.228Z,100744.47
2022-12-03T11:41:23.819Z,100746.69
2022-12-03T11:44:19.699Z,100744.00
2022-12-03T11:46:48.530Z,100744.56
2022-12-03T11:49:36.261Z,100739.28
2022-12-03T11:52:20.901Z,100731.59
2022-12-03T11:54:52.984Z,100726.31
2022-12-03T11:57:30.822Z,100724.69
2022-12-03T12:00:09.168Z,100732.63
2022-12-03T12:02:36.996Z,100723.06
2022-12-03T12:05:19.576Z,100727.84
2022-12-03T12:07:49.232Z,100722.94
2022-12-03T12:10:42.341Z,100713.13
2022-12-03T12:13:42.463Z,100714.22
2022-12-03T12:16:10.536Z,100716.63
2022-12-03T12:18:40.389Z,100713.72
2022-12-03T12:21:44.351Z,100712.78
2022-12-03T12:24:43.050Z,100705.06
2022-12-03T12:27:13.220Z,100707.22
2022-12-03T12:29:42.882Z,100701.69
2022-12-03T12:32:16.173Z,100692.84
2022-12-03T12:34:46.265Z,100693.44
2022-12-03T12:37:23.805Z,100686.41
2022-12-03T12:39:57.165Z,100688.50
2022-12-03T12:42:33.867Z,100681.91
2022-12-03T12:45:13.125Z,100674.69
2022-12-03T12:47:49.778Z,100675.28
2022-12-03T12:50:19.688Z,100675.28
2022-12-03T12:52:53.607Z,100676.69
2022-12-03T12:55:24.233Z,100671.41
2022-12-03T12:57:52.601Z,100677.66
2022-12-03T13:00:22.509Z,100675.28
2022-12-03T13:02:55.560Z,100673.59
2022-12-03T13:05:27.603Z,100677.97
2022-12-03T13:07:55.916Z,100681.47
2022-12-03T13:10:43.361Z,100679.78
2022-12-03T13:13:26.044Z,100682.81
2022-12-03T13:16:02.468Z,100671.44
2022-12-03T13:18:41.581Z,100675.25
2022-12-03T13:21:23.368Z,100681.66
2022-12-03T13:23:53.446Z,100677.44
2022-12-03T13:29:16.369Z,100670.63
2022-12-03T13:31:50.029Z,100668.94
2022-12-03T13:34:21.728Z,100664.78
2022-12-03T13:36:56.991Z,100662.03
2022-12-03T13:39:30.779Z,100663.69
2022-12-03T13:42:24.351Z,100659.84
2022-12-03T13:44:54.282Z,100651.13
2022-12-03T13:47:23.848Z,100662.50
2022-12-03T13:49:54.467Z,100662.25
2022-12-03T13:52:24.830Z,100661.69
2022-12-03T13:54:54.895Z,100660.84
2022-12-03T13:57:24.402Z,100650.53
2022-12-03T13:59:52.542Z,100653.16
2022-12-03T14:02:20.630Z,100653.88
2022-12-03T14:04:48.428Z,100651.69
2022-12-03T14:07:16.118Z,100648.72
2022-12-03T14:09:43.916Z,100654.81
2022-12-03T14:12:26.937Z,100652.19
2022-12-03T14:14:56.044Z,100652.88
2022-12-03T14:17:23.751Z,100647.59
2022-12-03T14:19:51.498Z,100644.41
2022-12-03T14:22:23.148Z,100649.56
2022-12-03T14:24:51.053Z,100645.25
2022-12-03T14:27:18.906Z,100647.44
2022-12-03T14:29:46.691Z,100642.28
2022-12-03T14:32:15.923Z,100642.91
2022-12-03T14:34:43.886Z,100641.72
2022-12-03T14:37:11.547Z,100651.75
2022-12-03T14:39:39.507Z,100646.03
2022-12-03T14:42:17.012Z,100638.59
2022-12-03T14:44:46.586Z,100655.13
2022-12-03T14:47:17.360Z,100652.50
2022-12-03T14:49:45.378Z,100655.00
2022-12-03T14:52:13.150Z,100655.84
2022-12-03T14:54:42.340Z,100660.63
2022-12-03T14:57:11.579Z,100666.16
2022-12-03T14:59:39.313Z,100660.63
2022-12-03T15:02:07.558Z,100665.19
2022-12-03T15:04:36.654Z,100658.34
2022-12-03T15:07:04.580Z,100660.63
2022-12-03T15:09:32.505Z,100663.72
2022-12-03T15:12:00.667Z,100663.50
2022-12-03T15:14:28.812Z,100665.56
2022-12-03T15:16:56.873Z,100659.66
2022-12-03T15:19:24.624Z,100665.78
2022-12-03T15:21:53.706Z,100656.56
2022-12-03T15:24:21.572Z,100665.66
2022-12-03T15:26:49.485Z,100659.06
2022-12-03T15:29:17.227Z,100656.09
2022-12-03T15:31:44.989Z,100658.22
2022-12-03T15:34:16.100Z,100665.66
2022-12-03T15:36:46.508Z,100664.00
2022-12-03T15:39:15.589Z,100664.59
2022-12-03T15:41:43.250Z,100668.53
2022-12-03T15:44:10.979Z,100660.75
2022-12-03T15:46:38.897Z,100655.25
2022-12-03T15:49:06.657Z,100659.56
2022-12-03T15:51:34.588Z,100659.78
2022-12-03T15:54:03.992Z,100665.06
2022-12-03T15:56:37.355Z,100656.19
2022-12-03T15:59:05.116Z,100655.59
2022-12-03T16:01:32.951Z,100654.63
2022-12-03T16:04:00.915Z,100653.91
2022-12-03T16:06:28.567Z,100656.81
2022-12-03T16:08:56.257Z,100656.53
2022-12-03T16:11:23.976Z,100647.34
2022-12-03T16:13:53.058Z,100652.59
2022-12-03T16:16:20.915Z,100643.25
2022-12-03T16:18:48.671Z,100646.94
2022-12-03T16:21:16.388Z,100652.94
2022-12-03T16:23:44.142Z,100646.50
2022-12-03T16:26:11.898Z,100645.66
2022-12-03T16:28:39.740Z,100658.94
2022-12-03T16:31:08.891Z,100654.91
2022-12-03T16:33:36.627Z,100656.09
2022-12-03T16:36:04.802Z,100653.56
2022-12-03T16:38:33.603Z,100656.91
2022-12-03T16:41:01.471Z,100659.19
2022-12-03T16:43:29.280Z,100654.63
2022-12-03T16:46:20.167Z,100655.69
2022-12-03T16:48:49.651Z,100651.03
2022-12-03T16:51:19.237Z,100647.44
2022-12-03T16:53:47.257Z,100649.84
2022-12-03T16:56:15.507Z,100647.44
2022-12-03T16:58:43.694Z,100644.19
2022-12-03T17:01:12.023Z,100643.38
2022-12-03T17:03:39.887Z,100639.06
2022-12-03T17:06:09.159Z,100631.28
2022-12-03T17:08:36.855Z,100637.28
2022-12-03T17:11:04.735Z,100629.94
2022-12-03T17:13:32.505Z,100634.97
2022-12-03T17:16:00.834Z,100634.75
2022-12-03T17:18:28.836Z,100628.91
2022-12-03T17:21:06.581Z,100630.34
2022-12-03T17:23:35.649Z,100636.91
2022-12-03T17:26:03.424Z,100634.28
2022-12-03T17:28:31.339Z,100635.69
2022-12-03T17:30:59.285Z,100629.97
2022-12-03T17:33:27.066Z,100629.88
2022-12-03T17:35:54.867Z,100629.97
2022-12-03T17:38:22.634Z,100616.69
2022-12-03T17:40:51.766Z,100631.88
2022-12-03T17:43:19.451Z,100624.94
2022-12-03T17:45:47.131Z,100616.19
2022-12-03T17:48:15.675Z,100630.56
2022-12-03T17:50:43.645Z,100615.69
2022-12-03T17:53:11.394Z,100619.16
2022-12-03T17:55:44.728Z,100611.03
2022-12-03T17:58:14.790Z,100618.66
2022-12-03T18:00:44.708Z,100616.88
2022-12-03T18:03:12.508Z,100613.41
2022-12-03T18:05:40.364Z,100613.28
2022-12-03T18:08:08.278Z,100611.97
2022-12-03T18:10:36.305Z,100608.63
2022-12-03T18:13:04.192Z,100613.63
2022-12-03T18:15:33.698Z,100610.88
2022-12-03T18:18:01.423Z,100606.69
2022-12-03T18:20:29.323Z,100603.91
2022-12-03T18:22:58.624Z,100608.84
2022-12-03T18:25:26.531Z,100604.41
2022-12-03T18:27:54.230Z,100606.00
2022-12-03T18:30:22.317Z,100599.53
2022-12-03T18:32:51.436Z,100609.56
2022-12-03T18:35:19.987Z,100598.34
2022-12-03T18:37:47.906Z,100601.69
2022-12-03T18:40:20.001Z,100605.75
2022-12-03T18:42:47.897Z,100605.88
2022-12-03T18:45:16.351Z,100600.38
2022-12-03T18:47:44.554Z,100595.56
2022-12-03T18:50:14.734Z,100605.63
2022-12-03T18:52:42.593Z,100599.63
2022-12-03T18:55:16.078Z,100597.00
2022-12-03T18:57:43.816Z,100595.66
2022-12-03T19:00:13.924Z,100597.50
2022-12-03T19:05:32.353Z,100594.53
2022-12-03T19:08:00.344Z,100601.69
2022-12-03T19:10:28.518Z,100598.91
2022-12-03T19:12:56.295Z,100597.50
2022-12-03T19:15:24.198Z,100600.25
2022-12-03T19:17:52.585Z,100588.97
2022-12-03T19:20:20.658Z,100594.88
2022-12-03T19:22:49.737Z,100599.53
2022-12-03T19:25:17.503Z,100593.41
2022-12-03T19:27:45.233Z,100594.03
2022-12-03T19:30:13.868Z,100591.13
2022-12-03T19:32:41.520Z,100594.38
2022-12-03T19:35:11.241Z,100590.19
2022-12-03T19:37:39.224Z,100591.63
2022-12-03T19:40:11.152Z,100598.22
2022-12-03T19:42:38.857Z,100588.75
2022-12-03T19:45:07.870Z,100587.81
2022-12-03T19:47:35.970Z,100589.72
2022-12-03T19:50:03.755Z,100594.03
2022-12-03T19:52:31.852Z,100583.09
2022-12-03T19:54:59.616Z,100589.47
2022-12-03T19:57:29.184Z,100589.09
2022-12-03T19:59:57.382Z,100592.06
2022-12-03T20:02:25.544Z,100594.03
2022-12-03T20:04:56.390Z,100594.97
2022-12-03T20:07:24.103Z,100593.41
2022-12-03T20:09:52.732Z,100589.22
2022-12-03T20:12:20.596Z,100589.81
2022-12-03T20:14:50.155Z,100584.66
2022-12-03T20:17:17.870Z,100588.47
2022-12-03T20:19:45.561Z,100591.72
2022-12-03T20:22:13.250Z,100587.41
2022-12-03T20:24:41.020Z,100582.03
2022-12-03T20:27:08.752Z,100589.19
2022-12-03T20:29:36.522Z,100589.19
2022-12-03T20:32:06.997Z,100588.25
2022-12-03T20:34:35.938Z,100583.31
2022-12-03T20:37:04.280Z,100586.47
2022-12-03T20:39:31.966Z,100572.44
2022-12-03T20:41:59.606Z,100575.66
2022-12-03T20:44:27.307Z,100574.34
2022-12-03T20:46:55.153Z,100567.91
2022-12-03T20:49:24.238Z,100572.31
2022-12-03T20:51:51.931Z,100561.28
2022-12-03T20:54:19.593Z,100557.81
2022-12-03T20:56:47.393Z,100568.72
2022-12-03T20:59:17.758Z,100560.22
2022-12-03T21:01:47.072Z,100569.06
2022-12-03T21:04:16.164Z,100568.84
2022-12-03T21:06:46.230Z,100559.03
2022-12-03T21:09:13.992Z,100556.00
2022-12-03T21:11:42.536Z,100560.81
2022-12-03T21:14:11.938Z,100562.84
2022-12-03T21:19:29.849Z,100563.34
2022-12-03T21:21:58.945Z,100560.00
2022-12-03T21:24:26.609Z,100558.09
2022-12-03T21:26:57.829Z,100565.03
2022-12-03T21:29:25.914Z,100555.66
2022-12-03T21:31:53.655Z,100552.31
2022-12-03T21:34:21.451Z,100552.81
2022-12-03T21:36:49.092Z,100559.16
2022-12-03T21:39:18.713Z,100556.75
2022-12-03T21:42:34.133Z,100555.91
2022-12-03T21:44:34.973Z,100547.41
2022-12-03T21:47:10.159Z,100545.75
2022-12-03T21:49:41.938Z,100547.66
2022-12-03T21:52:09.791Z,100552.06
2022-12-03T21:54:38.896Z,100548.38
2022-12-03T21:57:06.598Z,100552.31
2022-12-03T21:59:34.554Z,100551.84
2022-12-03T22:02:02.334Z,100552.91
2022-12-03T22:04:30.156Z,100537.69
2022-12-03T22:06:58.126Z,100554.22
2022-12-03T22:09:26.846Z,100544.59
2022-12-03T22:11:59.173Z,100552.53
2022-12-03T22:14:27.511Z,100546.91
2022-12-03T22:16:55.269Z,100558.41
2022-12-03T22:19:23.783Z,100559.03
2022-12-03T22:21:51.586Z,100558.75
2022-12-03T22:24:19.665Z,100553.50
2022-12-03T22:26:47.425Z,100555.16
2022-12-03T22:29:16.827Z,100550.03
2022-12-03T22:31:44.585Z,100559.03
2022-12-03T22:34:12.456Z,100552.91
2022-12-03T22:36:40.207Z,100548.94
2022-12-03T22:39:07.941Z,100547.03
2022-12-03T22:41:35.663Z,100548.94
2022-12-03T22:44:03.361Z,100547.66
2022-12-03T22:46:32.519Z,100534.34
2022-12-03T22:49:06.521Z,100538.78
2022-12-03T22:51:34.988Z,100544.28
2022-12-03T22:54:03.031Z,100545.03
2022-12-03T22:56:31.393Z,100543.72
2022-12-03T22:59:00.356Z,100540.25
2022-12-03T23:01:30.270Z,100538.81
2022-12-03T23:03:59.770Z,100539.41
2022-12-03T23:06:28.338Z,100531.38
2022-12-03T23:08:57.259Z,100531.38
2022-12-03T23:11:25.590Z,100533.63
2022-12-03T23:13:53.977Z,100517.38
2022-12-03T23:16:26.135Z,100516.53
2022-12-03T23:18:54.201Z,100510.41
2022-12-03T23:21:29.482Z,100500.44
2022-12-03T23:23:57.945Z,100490.50
2022-12-03T23:26:25.688Z,100489.34
2022-12-03T23:28:53.417Z,100482.38
2022-12-03T23:31:23.316Z,100484.28
2022-12-03T23:33:52.039Z,100484.28
2022-12-03T23:36:21.474Z,100484.28
2022-12-03T23:38:50.916Z,100488.94
2022-12-03T23:41:21.120Z,100497.25
2022-12-03T23:43:48.995Z,100511.88
2022-12-03T23:46:18.632Z,100509.69
2022-12-03T23:48:46.894Z,100510.03
2022-12-03T23:51:16.284Z,100502.50
2022-12-03T23:53:44.903Z,100504.91
2022-12-03T23:56:16.812Z,100494.00
2022-12-03T23:58:45.124Z,100486.72
